Time;durP1;ratioP1;P1;durP2;ratioP2;P2;SDS_P1;SDS_P2;PMS_P1;PMS_P2;Temp;Humidity;BMP_temperature;BMP_pressure;BME280_temperature;BME280_humidity;BME280_pressure;Samples;Min_cycle;Max_cycle;Signal;HPM_P1;HPM_P2
2021/09/30 00:01:56;;;;;;;5.53;2.90;;;12.00;76.90;;;;;;4995729;28;20414;-90
2021/09/30 00:04:21;;;;;;;10.80;4.03;;;12.10;76.90;;;;;;5014546;28;20524;-90
2021/09/30 00:06:47;;;;;;;3.90;2.80;;;12.00;77.00;;;;;;4988337;28;20574;-90
2021/09/30 00:09:14;;;;;;;10.03;2.97;;;12.10;76.80;;;;;;4977158;28;20175;-89
2021/09/30 00:11:44;;;;;;;15.00;3.15;;;12.10;76.90;;;;;;4976685;28;20937;-90
2021/09/30 00:14:26;;;;;;;6.82;2.70;;;12.10;76.90;;;;;;4977393;28;20315;-90
2021/09/30 00:33:55;;;;;;;7.32;3.97;;;11.90;76.50;;;;;;5014412;28;20264;-89
2021/09/30 00:51:57;;;;;;;4.10;2.50;;;11.80;76.20;;;;;;5001161;28;20607;-90
2021/09/30 01:31:03;;;;;;;2.38;2.00;;;11.40;76.80;;;;;;4998464;28;20550;-90
2021/09/30 02:25:15;;;;;;;3.67;2.13;;;11.20;78.10;;;;;;4997789;28;20171;-90
2021/09/30 03:00:28;;;;;;;5.85;1.85;;;11.20;78.30;;;;;;5016279;28;20178;-89
2021/09/30 03:02:56;;;;;;;2.55;1.90;;;11.30;78.50;;;;;;4987055;28;20199;-90
2021/09/30 03:05:23;;;;;;;7.00;2.10;;;11.30;78.30;;;;;;4978531;28;20183;-89
2021/09/30 03:07:54;;;;;;;4.22;1.95;;;11.20;78.20;;;;;;4978744;28;20247;-89
2021/09/30 03:10:24;;;;;;;3.80;2.15;;;11.40;78.50;;;;;;4978987;28;20550;-89
2021/09/30 03:12:53;;;;;;;8.98;2.30;;;11.30;78.40;;;;;;4977510;28;20683;-89
2021/09/30 03:23:19;;;;;;;4.32;2.20;;;11.40;78.00;;;;;;4999364;28;20667;-89
2021/09/30 03:25:47;;;;;;;3.83;2.13;;;11.30;77.90;;;;;;4978240;28;20211;-89
2021/09/30 03:28:15;;;;;;;6.35;2.47;;;11.30;77.70;;;;;;4994575;28;20234;-89
2021/09/30 03:30:42;;;;;;;7.00;3.33;;;11.30;77.70;;;;;;4997381;28;20213;-89
2021/09/30 03:33:08;;;;;;;8.52;2.60;;;11.20;77.60;;;;;;4996696;28;20199;-89
2021/09/30 03:35:39;;;;;;;3.67;2.47;;;11.20;78.50;;;;;;4997328;28;20175;-89
2021/09/30 03:38:06;;;;;;;5.15;2.00;;;11.30;78.00;;;;;;4980910;28;20650;-90
2021/09/30 03:40:34;;;;;;;2.75;1.88;;;11.30;77.90;;;;;;4983065;28;20185;-89
2021/09/30 03:43:01;;;;;;;4.22;2.35;;;11.30;77.80;;;;;;4980756;28;20195;-89
2021/09/30 03:45:26;;;;;;;6.63;2.63;;;11.40;77.70;;;;;;4983579;28;20241;-89
2021/09/30 03:47:53;;;;;;;7.22;2.53;;;11.40;77.40;;;;;;5005934;28;20171;-88
2021/09/30 03:50:28;;;;;;;5.93;3.08;;;11.40;77.50;;;;;;4967771;28;20186;-89
2021/09/30 03:55:32;;;;;;;13.37;2.57;;;11.20;77.50;;;;;;4996483;28;20183;-90
2021/09/30 04:00:33;;;;;;;3.65;2.53;;;11.30;77.40;;;;;;5001505;28;20159;-89
2021/09/30 04:02:59;;;;;;;5.90;2.27;;;11.20;77.70;;;;;;4982182;28;20199;-89
2021/09/30 04:05:24;;;;;;;4.50;2.40;;;11.20;77.80;;;;;;4992358;28;20425;-89
2021/09/30 04:07:50;;;;;;;3.70;2.40;;;11.20;77.50;;;;;;4986078;28;20175;-89
2021/09/30 04:10:16;;;;;;;4.00;2.57;;;11.30;77.40;;;;;;4994909;28;20189;-89
2021/09/30 04:12:42;;;;;;;4.50;2.13;;;11.40;77.10;;;;;;4996640;28;20241;-89
2021/09/30 04:15:08;;;;;;;10.57;2.73;;;11.30;77.00;;;;;;4997161;28;20198;-89
2021/09/30 04:17:34;;;;;;;5.55;2.03;;;11.30;76.80;;;;;;4997866;28;20196;-89
2021/09/30 04:19:59;;;;;;;2.80;2.37;;;11.20;77.00;;;;;;5014932;28;20183;-89
2021/09/30 04:22:25;;;;;;;4.67;3.07;;;11.20;76.80;;;;;;4996784;28;20217;-89
2021/09/30 04:24:51;;;;;;;7.83;3.77;;;11.20;76.70;;;;;;4989883;28;20210;-90
2021/09/30 04:27:17;;;;;;;5.27;2.70;;;11.00;76.90;;;;;;4976933;28;20203;-90
2021/09/30 04:29:44;;;;;;;5.43;3.10;;;11.10;76.90;;;;;;4977872;28;20182;-90
2021/09/30 04:32:10;;;;;;;7.97;2.90;;;11.00;77.00;;;;;;4976602;28;20175;-90
2021/09/30 04:34:36;;;;;;;12.13;3.55;;;11.00;77.00;;;;;;4977043;28;20214;-89
2021/09/30 04:37:02;;;;;;;10.83;2.00;;;10.90;77.10;;;;;;4982224;28;20265;-89
2021/09/30 04:39:28;;;;;;;7.80;2.90;;;10.90;77.40;;;;;;4981530;28;20183;-89
2021/09/30 04:41:54;;;;;;;4.20;2.33;;;10.90;77.50;;;;;;4995907;28;20436;-89
2021/09/30 04:44:22;;;;;;;8.00;2.47;;;10.80;77.60;;;;;;4996366;28;20649;-90
2021/09/30 04:46:48;;;;;;;5.15;2.92;;;10.90;77.70;;;;;;4998033;28;20471;-90
2021/09/30 04:49:14;;;;;;;5.82;2.72;;;10.90;77.60;;;;;;5018721;28;20186;-89
2021/09/30 04:51:41;;;;;;;3.97;2.33;;;11.00;77.40;;;;;;5018208;28;20255;-90
2021/09/30 04:54:07;;;;;;;11.75;3.70;;;11.00;77.00;;;;;;4999299;28;20438;-90
2021/09/30 04:56:33;;;;;;;5.03;2.70;;;10.90;77.30;;;;;;4992979;28;20179;-90
2021/09/30 04:58:59;;;;;;;4.97;2.80;;;11.00;77.20;;;;;;4981539;28;20187;-90
2021/09/30 05:01:25;;;;;;;4.78;2.45;;;11.00;76.90;;;;;;4981657;28;20238;-90
2021/09/30 05:03:51;;;;;;;4.60;2.30;;;11.00;76.90;;;;;;4997687;28;20186;-89
2021/09/30 05:06:17;;;;;;;6.37;2.60;;;11.10;76.80;;;;;;5020874;28;20488;-89
2021/09/30 05:08:45;;;;;;;5.93;2.55;;;11.00;76.50;;;;;;5003819;28;20167;-88
2021/09/30 05:11:11;;;;;;;6.68;2.78;;;11.00;76.50;;;;;;4994542;28;20170;-90
2021/09/30 05:13:37;;;;;;;10.20;3.20;;;11.00;76.50;;;;;;4983850;28;20201;-90
2021/09/30 05:16:11;;;;;;;4.82;2.42;;;11.00;76.50;;;;;;4984180;28;20246;-91
2021/09/30 05:18:45;;;;;;;3.45;2.35;;;11.00;76.30;;;;;;4996335;28;20190;-90
2021/09/30 05:21:11;;;;;;;7.25;2.45;;;10.90;76.50;;;;;;5004256;28;20195;-89
2021/09/30 05:23:36;;;;;;;3.30;2.03;;;10.90;76.50;;;;;;5001689;28;20195;-90
2021/09/30 05:26:03;;;;;;;9.60;2.90;;;11.00;76.40;;;;;;4965745;28;20473;-90
2021/09/30 05:28:28;;;;;;;4.95;3.25;;;11.00;76.20;;;;;;4984078;28;20266;-91
2021/09/30 05:30:54;;;;;;;3.67;2.07;;;11.00;76.10;;;;;;5000268;28;20214;-90
2021/09/30 05:33:20;;;;;;;12.63;3.33;;;10.90;76.20;;;;;;5000567;28;20205;-90
2021/09/30 05:35:47;;;;;;;3.60;2.33;;;10.90;76.70;;;;;;5001298;28;20434;-90
2021/09/30 05:38:13;;;;;;;4.85;2.40;;;11.00;76.60;;;;;;5000440;28;20225;-90
2021/09/30 05:40:39;;;;;;;4.63;1.85;;;10.90;76.40;;;;;;5002555;28;20183;-91
2021/09/30 05:43:08;;;;;;;9.55;3.00;;;11.10;76.40;;;;;;4999302;28;20624;-91
2021/09/30 05:45:41;;;;;;;7.15;2.75;;;11.20;76.30;;;;;;5000196;28;20182;-91
2021/09/30 05:48:07;;;;;;;7.28;2.28;;;11.20;76.00;;;;;;5008520;28;20168;-91
2021/09/30 05:50:33;;;;;;;2.95;1.95;;;11.30;75.40;;;;;;5000091;28;20175;-91
2021/09/30 05:52:58;;;;;;;4.20;2.20;;;11.30;75.10;;;;;;5001159;28;20195;-91
2021/09/30 05:55:26;;;;;;;6.03;2.30;;;11.20;74.80;;;;;;5019254;28;20413;-91
2021/09/30 05:57:52;;;;;;;4.20;2.40;;;11.30;74.90;;;;;;5007546;28;20627;-91
2021/09/30 06:11:03;;;;;;;5.55;2.13;;;11.30;74.20;;;;;;4999074;28;20594;-91
2021/09/30 06:13:39;;;;;;;7.30;2.63;;;11.40;73.90;;;;;;4985162;28;20612;-94
2021/09/30 06:16:09;;;;;;;11.60;2.47;;;11.50;73.90;;;;;;4998730;28;20189;-94
2021/09/30 06:18:35;;;;;;;8.60;2.35;;;11.70;73.30;;;;;;4998801;28;20207;-94
2021/09/30 06:21:01;;;;;;;4.53;2.05;;;11.60;73.10;;;;;;4997277;28;20209;-93
2021/09/30 06:23:27;;;;;;;7.43;2.60;;;11.70;72.90;;;;;;4996743;28;20311;-94
2021/09/30 06:25:55;;;;;;;12.07;3.53;;;11.60;72.30;;;;;;4995702;28;20663;-94
2021/09/30 06:28:21;;;;;;;5.55;3.50;;;11.60;72.30;;;;;;4997246;28;20462;-94
2021/09/30 06:30:47;;;;;;;6.93;2.60;;;11.50;72.70;;;;;;4997657;28;20183;-94
2021/09/30 06:33:12;;;;;;;4.43;2.75;;;11.50;73.00;;;;;;4997073;28;20450;-94
2021/09/30 06:35:38;;;;;;;4.60;2.80;;;11.60;73.20;;;;;;4997110;28;20203;-94
2021/09/30 06:38:04;;;;;;;5.73;2.60;;;11.60;73.00;;;;;;4995531;28;20442;-94
2021/09/30 06:40:31;;;;;;;3.30;3.00;;;11.60;72.90;;;;;;5013149;28;20418;-94
2021/09/30 06:42:58;;;;;;;4.70;2.28;;;11.60;72.90;;;;;;4997008;28;20194;-94
2021/09/30 06:45:24;;;;;;;6.63;2.83;;;11.60;72.80;;;;;;4999601;28;20183;-94
2021/09/30 06:47:50;;;;;;;7.00;2.72;;;11.70;73.00;;;;;;4998630;28;20175;-94
2021/09/30 06:50:16;;;;;;;8.60;2.80;;;11.60;73.00;;;;;;5000187;28;20196;-94
2021/09/30 06:52:43;;;;;;;8.93;2.95;;;11.60;72.90;;;;;;5018142;28;20603;-94
2021/09/30 06:55:10;;;;;;;5.03;2.72;;;11.50;73.20;;;;;;5018573;28;20190;-95
2021/09/30 06:57:46;;;;;;;4.60;2.40;;;11.60;73.20;;;;;;5017774;28;20178;-94
2021/09/30 07:00:21;;;;;;;9.77;1.92;;;11.70;72.40;;;;;;5018746;28;20158;-95
2021/09/30 07:02:50;;;;;;;4.53;3.05;;;11.60;72.60;;;;;;5019977;28;20190;-94
2021/09/30 07:05:16;;;;;;;14.10;3.25;;;11.70;72.70;;;;;;5036367;28;20190;-94
2021/09/30 07:07:45;;;;;;;7.45;2.50;;;11.90;72.10;;;;;;5019542;28;20241;-94
2021/09/30 07:10:14;;;;;;;10.20;3.40;;;12.10;71.60;;;;;;5019111;28;20178;-94
2021/09/30 07:12:44;;;;;;;7.40;2.35;;;12.10;71.20;;;;;;5038092;28;20202;-95
2021/09/30 07:15:11;;;;;;;9.90;2.63;;;12.00;71.40;;;;;;5020661;28;20178;-94
2021/09/30 07:17:40;;;;;;;7.22;3.10;;;12.10;71.80;;;;;;5019673;28;20179;-94
2021/09/30 07:20:09;;;;;;;25.42;3.38;;;12.10;71.80;;;;;;5020238;28;20178;-95
2021/09/30 07:22:38;;;;;;;6.47;2.63;;;12.30;71.00;;;;;;5021246;28;20213;-95
2021/09/30 07:25:05;;;;;;;8.05;2.72;;;12.10;71.40;;;;;;5037963;28;20178;-95
2021/09/30 07:27:31;;;;;;;5.15;2.42;;;12.10;71.80;;;;;;5036973;28;20206;-94
2021/09/30 07:29:57;;;;;;;6.20;2.67;;;12.20;71.90;;;;;;5019033;28;20185;-95
2021/09/30 07:32:25;;;;;;;8.25;3.03;;;12.30;71.60;;;;;;5019320;28;20179;-95
2021/09/30 07:34:54;;;;;;;10.30;2.83;;;12.40;71.50;;;;;;5019372;28;20182;-95
2021/09/30 07:37:22;;;;;;;10.82;2.72;;;12.30;71.30;;;;;;5019641;28;20250;-95
2021/09/30 07:39:51;;;;;;;6.22;2.03;;;12.30;71.40;;;;;;5018705;28;20255;-95
2021/09/30 07:42:24;;;;;;;11.90;3.10;;;12.30;71.60;;;;;;5018948;28;20155;-95
2021/09/30 07:44:55;;;;;;;4.88;2.05;;;12.60;71.10;;;;;;5020894;28;20178;-94
2021/09/30 07:47:28;;;;;;;4.28;2.05;;;12.60;70.90;;;;;;5020463;28;20222;-95
2021/09/30 07:49:59;;;;;;;8.73;2.70;;;12.60;71.00;;;;;;5019384;28;20210;-95
2021/09/30 07:52:25;;;;;;;3.75;3.40;;;12.60;71.10;;;;;;5035642;28;20178;-94
2021/09/30 07:54:55;;;;;;;9.47;2.87;;;12.70;70.80;;;;;;5018882;28;20229;-95
2021/09/30 07:57:21;;;;;;;5.80;2.90;;;12.80;69.80;;;;;;5018890;28;20445;-95
2021/09/30 07:59:47;;;;;;;4.78;2.05;;;12.70;69.80;;;;;;5036284;28;20209;-95
2021/09/30 08:02:13;;;;;;;6.20;2.35;;;12.50;70.20;;;;;;5016975;28;20178;-94
2021/09/30 08:04:39;;;;;;;4.95;2.22;;;12.70;70.20;;;;;;5017500;28;20185;-95
2021/09/30 08:07:08;;;;;;;4.20;2.53;;;12.90;69.30;;;;;;5016775;28;20218;-94
2021/09/30 08:09:40;;;;;;;5.47;2.30;;;13.00;68.90;;;;;;5017195;28;20413;-95
2021/09/30 08:12:09;;;;;;;5.47;2.58;;;13.20;67.90;;;;;;5016962;28;20229;-94
2021/09/30 08:14:36;;;;;;;8.02;2.88;;;13.20;67.60;;;;;;5017811;28;20166;-95
2021/09/30 08:17:10;;;;;;;5.85;2.30;;;13.30;68.10;;;;;;5016747;28;20233;-95
2021/09/30 08:19:39;;;;;;;3.30;2.15;;;13.40;67.90;;;;;;5017060;28;20184;-94
2021/09/30 08:22:17;;;;;;;6.75;2.30;;;13.60;67.80;;;;;;5033043;28;20167;-94
2021/09/30 08:24:52;;;;;;;5.85;3.38;;;13.80;67.60;;;;;;5017183;28;20174;-95
2021/09/30 08:27:24;;;;;;;6.47;2.17;;;14.10;66.90;;;;;;5018151;28;20217;-95
2021/09/30 08:29:56;;;;;;;3.25;2.40;;;14.20;66.00;;;;;;5034369;28;20277;-95
2021/09/30 08:32:22;;;;;;;8.52;2.67;;;14.60;64.30;;;;;;5033462;28;20522;-95
2021/09/30 08:34:52;;;;;;;3.67;1.92;;;14.50;64.10;;;;;;5033856;28;20162;-95
2021/09/30 08:37:19;;;;;;;6.75;2.40;;;14.60;63.90;;;;;;5016257;28;20183;-94
2021/09/30 08:39:54;;;;;;;5.60;2.17;;;14.80;63.10;;;;;;5015786;28;20182;-94
2021/09/30 08:42:23;;;;;;;6.03;2.47;;;14.90;61.70;;;;;;5016176;28;20182;-94
2021/09/30 08:44:53;;;;;;;5.18;1.90;;;15.00;61.70;;;;;;5016107;28;20183;-95
2021/09/30 08:47:24;;;;;;;6.63;2.50;;;15.10;61.40;;;;;;5033132;28;20217;-94
2021/09/30 08:49:55;;;;;;;4.13;1.90;;;15.10;61.70;;;;;;5016140;28;20159;-95
2021/09/30 08:52:23;;;;;;;8.48;2.63;;;15.10;61.10;;;;;;5032642;28;20250;-94
2021/09/30 08:55:01;;;;;;;5.00;2.42;;;15.10;61.20;;;;;;5014224;28;20182;-95
2021/09/30 08:57:27;;;;;;;6.07;2.13;;;15.10;61.20;;;;;;5015320;28;20178;-94
2021/09/30 09:00:08;;;;;;;8.43;4.20;;;15.30;61.20;;;;;;5034090;28;20224;-94
2021/09/30 09:02:48;;;;;;;5.25;2.90;;;15.20;60.50;;;;;;5017486;28;20206;-94
2021/09/30 09:05:18;;;;;;;10.18;2.95;;;15.40;60.30;;;;;;5016379;28;20182;-95
2021/09/30 09:08:04;;;;;;;9.70;2.50;;;15.40;60.00;;;;;;5019227;28;20270;-94
2021/09/30 09:10:39;;;;;;;1.90;1.70;;;15.40;60.40;;;;;;5019671;28;20187;-93
2021/09/30 09:13:13;;;;;;;6.72;1.95;;;15.40;60.60;;;;;;5019113;28;20226;-94
2021/09/30 09:16:02;;;;;;;8.73;2.15;;;15.50;60.30;;;;;;5019443;28;20221;-93
2021/09/30 09:18:34;;;;;;;7.40;2.15;;;15.60;60.50;;;;;;5019918;28;20209;-94
2021/09/30 09:21:15;;;;;;;3.92;2.50;;;15.80;59.40;;;;;;5019409;28;20213;-94
2021/09/30 09:23:54;;;;;;;7.95;2.42;;;15.80;59.00;;;;;;5019730;28;20206;-94
2021/09/30 09:26:32;;;;;;;8.02;2.50;;;15.90;58.70;;;;;;5019280;28;20281;-94
2021/09/30 09:29:06;;;;;;;6.95;2.20;;;16.00;58.90;;;;;;5019358;28;20197;-95
2021/09/30 09:31:45;;;;;;;4.50;1.67;;;15.80;58.20;;;;;;5019386;28;20289;-94
2021/09/30 09:34:32;;;;;;;5.30;2.17;;;16.00;58.30;;;;;;5022415;28;20309;-94
2021/09/30 09:37:19;;;;;;;9.77;3.08;;;16.00;58.20;;;;;;5023242;28;20179;-94
2021/09/30 09:39:48;;;;;;;3.63;1.60;;;16.00;57.80;;;;;;5022754;28;20250;-94
2021/09/30 09:42:19;;;;;;;8.70;1.85;;;16.30;58.10;;;;;;5023112;28;20181;-94
2021/09/30 09:44:54;;;;;;;14.82;2.53;;;16.40;57.80;;;;;;5039558;28;20171;-94
2021/09/30 09:47:29;;;;;;;3.67;1.95;;;16.40;56.60;;;;;;5022815;28;20206;-94
2021/09/30 09:50:25;;;;;;;3.72;2.20;;;16.60;56.70;;;;;;5022942;28;20154;-94
2021/09/30 09:52:54;;;;;;;6.30;1.73;;;16.40;55.50;;;;;;5021225;28;20254;-94
2021/09/30 09:55:38;;;;;;;3.30;1.95;;;16.50;56.60;;;;;;5022241;28;20158;-94
2021/09/30 09:58:18;;;;;;;6.65;1.50;;;16.60;56.80;;;;;;5022772;28;20190;-95
2021/09/30 10:00:52;;;;;;;3.00;1.60;;;16.80;56.90;;;;;;5021093;28;20205;-94
2021/09/30 10:03:22;;;;;;;3.13;1.63;;;17.00;56.70;;;;;;5021575;28;20197;-94
2021/09/30 10:05:49;;;;;;;7.82;1.75;;;17.00;54.90;;;;;;5021073;28;20190;-95
2021/09/30 10:08:16;;;;;;;8.43;1.85;;;17.10;54.70;;;;;;5021480;28;20175;-94
2021/09/30 10:10:45;;;;;;;4.03;1.88;;;17.00;54.30;;;;;;5021228;28;20170;-94
2021/09/30 10:13:11;;;;;;;5.95;1.80;;;16.80;53.80;;;;;;5021121;28;20183;-94
2021/09/30 10:15:38;;;;;;;4.70;1.60;;;16.70;54.40;;;;;;5021246;28;20186;-95
2021/09/30 10:18:07;;;;;;;3.30;1.65;;;16.90;55.10;;;;;;5020771;28;20232;-94
2021/09/30 10:20:34;;;;;;;4.43;1.70;;;17.00;55.90;;;;;;5020793;28;20170;-94
2021/09/30 10:23:02;;;;;;;3.88;1.80;;;17.10;54.80;;;;;;5020986;28;20217;-94
2021/09/30 10:25:44;;;;;;;5.25;1.75;;;17.20;54.30;;;;;;5021353;28;20242;-94
2021/09/30 10:28:18;;;;;;;8.60;1.65;;;17.20;53.20;;;;;;5018621;28;20186;-94
2021/09/30 10:30:49;;;;;;;4.70;2.67;;;17.40;53.70;;;;;;5019384;28;20166;-95
2021/09/30 10:33:22;;;;;;;4.45;1.45;;;17.30;52.90;;;;;;5021368;28;20194;-95
2021/09/30 10:35:52;;;;;;;4.95;1.65;;;17.30;53.50;;;;;;5022430;28;20175;-94
2021/09/30 10:38:21;;;;;;;5.05;1.80;;;17.30;54.30;;;;;;5022375;28;20218;-95
2021/09/30 10:41:09;;;;;;;7.80;1.73;;;17.30;54.40;;;;;;5022211;28;20163;-93
2021/09/30 10:43:46;;;;;;;4.88;1.40;;;17.50;53.20;;;;;;5021807;28;20205;-93
2021/09/30 10:46:21;;;;;;;4.40;1.55;;;17.70;52.60;;;;;;5039007;28;20204;-93
2021/09/30 10:48:50;;;;;;;3.33;1.67;;;17.90;52.90;;;;;;5019941;28;20182;-94
2021/09/30 10:51:19;;;;;;;6.47;1.58;;;18.00;52.30;;;;;;5018217;28;20178;-94
2021/09/30 10:53:45;;;;;;;3.05;1.70;;;18.10;52.00;;;;;;5016733;28;20265;-94
2021/09/30 10:59:13;;;;;;;4.28;1.92;;;17.90;53.00;;;;;;5034717;28;20432;-94
2021/09/30 11:01:47;;;;;;;5.68;2.47;;;17.80;53.60;;;;;;5019746;28;20174;-93
2021/09/30 11:04:18;;;;;;;4.50;1.50;;;17.60;53.10;;;;;;5019956;28;20206;-94
2021/09/30 11:07:16;;;;;;;3.38;1.45;;;17.60;53.20;;;;;;5019944;28;20214;-94
2021/09/30 11:10:02;;;;;;;3.25;1.65;;;17.30;53.50;;;;;;5003612;28;20185;-93
2021/09/30 11:12:28;;;;;;;6.35;1.65;;;17.30;54.40;;;;;;5019325;28;20198;-94
2021/09/30 11:14:56;;;;;;;4.93;1.60;;;17.20;55.30;;;;;;5021070;28;20170;-94
2021/09/30 11:17:36;;;;;;;4.68;1.75;;;17.20;55.40;;;;;;5018338;28;20515;-94
2021/09/30 11:20:31;;;;;;;3.78;1.60;;;17.20;55.80;;;;;;5017203;28;20189;-93
2021/09/30 11:22:58;;;;;;;4.53;1.75;;;17.00;56.00;;;;;;5018025;28;20202;-93
2021/09/30 11:26:02;;;;;;;3.33;1.70;;;17.00;56.40;;;;;;5017326;28;20186;-94
2021/09/30 11:28:30;;;;;;;4.90;1.60;;;17.10;56.20;;;;;;5017237;28;20197;-94
2021/09/30 11:31:22;;;;;;;8.48;1.70;;;17.10;56.20;;;;;;5017934;28;20209;-94
2021/09/30 11:33:49;;;;;;;7.00;2.20;;;17.10;56.60;;;;;;5018275;28;20203;-94
2021/09/30 11:36:18;;;;;;;9.20;1.80;;;17.10;57.10;;;;;;5019282;28;20183;-94
2021/09/30 11:38:49;;;;;;;2.15;1.70;;;17.20;56.30;;;;;;5019313;28;20159;-94
2021/09/30 11:41:26;;;;;;;5.68;1.92;;;17.20;55.70;;;;;;5021153;28;20194;-94
2021/09/30 11:43:54;;;;;;;6.35;1.63;;;17.10;55.30;;;;;;5021116;28;20186;-93
2021/09/30 11:46:34;;;;;;;3.80;1.67;;;17.20;55.40;;;;;;5020948;28;20201;-93
2021/09/30 11:49:12;;;;;;;4.30;1.58;;;17.20;55.10;;;;;;5020720;28;20185;-93
2021/09/30 11:51:42;;;;;;;6.60;1.80;;;16.90;54.90;;;;;;5020244;28;20174;-94
2021/09/30 11:54:13;;;;;;;7.32;2.40;;;16.90;55.20;;;;;;5020150;28;20249;-94
2021/09/30 11:56:50;;;;;;;9.63;1.90;;;16.90;55.50;;;;;;5020364;28;20183;-93
2021/09/30 11:59:18;;;;;;;8.43;2.05;;;16.90;55.60;;;;;;5020811;28;20162;-93
2021/09/30 12:01:50;;;;;;;3.65;1.38;;;16.80;55.40;;;;;;5020804;28;20170;-94
2021/09/30 12:04:43;;;;;;;5.00;1.60;;;16.90;55.70;;;;;;5037647;28;20183;-94
2021/09/30 12:07:25;;;;;;;3.60;2.10;;;16.50;55.50;;;;;;5020418;28;20297;-93
2021/09/30 12:09:59;;;;;;;7.55;1.77;;;16.60;55.90;;;;;;5020459;28;20159;-94
2021/09/30 12:12:33;;;;;;;8.70;2.08;;;16.80;56.10;;;;;;5020125;28;20203;-94
2021/09/30 12:14:59;;;;;;;3.75;1.63;;;17.10;56.40;;;;;;5019207;28;20172;-94
2021/09/30 12:17:31;;;;;;;4.40;2.10;;;17.30;55.40;;;;;;5017964;28;20193;-94
2021/09/30 12:19:57;;;;;;;4.07;1.85;;;17.20;55.60;;;;;;5018936;28;20185;-94
2021/09/30 12:22:34;;;;;;;5.43;3.03;;;17.20;54.90;;;;;;5037155;28;20187;-93
2021/09/30 12:25:08;;;;;;;6.45;1.60;;;17.50;54.60;;;;;;5019358;28;20186;-94
2021/09/30 12:27:39;;;;;;;9.23;1.98;;;17.60;54.10;;;;;;5019759;28;20221;-93
2021/09/30 12:30:18;;;;;;;3.88;2.05;;;17.50;53.50;;;;;;5036978;28;20182;-94
2021/09/30 12:32:47;;;;;;;3.53;1.45;;;17.40;53.70;;;;;;5020585;28;20342;-94
2021/09/30 12:35:22;;;;;;;2.75;1.30;;;17.30;55.10;;;;;;5020532;28;20214;-94
2021/09/30 12:37:54;;;;;;;7.15;1.45;;;17.40;54.30;;;;;;5020610;28;20205;-95
2021/09/30 12:40:36;;;;;;;4.25;1.95;;;17.60;54.50;;;;;;5020542;28;20166;-94
2021/09/30 12:43:08;;;;;;;5.78;2.13;;;17.70;54.00;;;;;;5020245;28;20269;-93
2021/09/30 12:45:59;;;;;;;5.97;1.80;;;17.80;53.70;;;;;;5020019;28;20175;-94
2021/09/30 12:48:29;;;;;;;6.55;1.75;;;17.80;54.10;;;;;;5007950;28;20195;-94
2021/09/30 12:51:01;;;;;;;3.38;1.60;;;17.80;54.50;;;;;;5017866;28;20205;-93
2021/09/30 12:53:28;;;;;;;3.33;1.80;;;18.10;52.90;;;;;;5017465;28;20210;-93
2021/09/30 12:56:10;;;;;;;6.22;1.33;;;18.00;52.00;;;;;;5033124;28;20191;-94
2021/09/30 12:58:39;;;;;;;5.18;1.63;;;18.00;51.90;;;;;;5017345;28;20186;-94
2021/09/30 13:01:30;;;;;;;4.57;2.25;;;17.90;52.00;;;;;;5014933;28;20175;-94
2021/09/30 13:04:11;;;;;;;4.35;1.40;;;18.00;52.20;;;;;;5013881;28;20210;-94
2021/09/30 13:06:52;;;;;;;4.03;1.65;;;18.00;53.10;;;;;;5013492;28;20273;-93
2021/09/30 13:09:28;;;;;;;4.13;1.75;;;18.00;53.30;;;;;;5017434;28;20182;-94
2021/09/30 13:12:15;;;;;;;5.93;1.75;;;18.30;52.90;;;;;;5017270;28;20208;-94
2021/09/30 13:14:56;;;;;;;7.32;1.55;;;18.50;52.70;;;;;;5016724;28;20178;-94
2021/09/30 13:17:23;;;;;;;4.80;1.30;;;18.80;51.80;;;;;;5017838;28;20282;-93
2021/09/30 13:20:17;;;;;;;8.13;2.13;;;18.70;51.50;;;;;;5018036;28;20198;-94
2021/09/30 13:22:43;;;;;;;10.98;2.70;;;18.70;51.30;;;;;;5014710;28;20194;-94
2021/09/30 13:25:18;;;;;;;2.23;1.57;;;18.80;51.70;;;;;;5018067;28;20195;-94
2021/09/30 13:27:46;;;;;;;6.32;1.70;;;18.80;51.80;;;;;;5019158;28;20948;-94
2021/09/30 13:30:15;;;;;;;6.65;1.52;;;18.80;51.60;;;;;;5018625;28;20194;-94
2021/09/30 13:32:42;;;;;;;5.70;1.58;;;18.80;51.50;;;;;;5019394;28;20187;-94
2021/09/30 13:35:09;;;;;;;4.53;1.17;;;18.70;50.50;;;;;;5035710;28;20186;-94
2021/09/30 13:37:36;;;;;;;2.03;1.15;;;18.60;50.40;;;;;;5016266;28;20558;-93
2021/09/30 13:40:04;;;;;;;5.75;1.90;;;18.20;50.40;;;;;;5017410;28;20182;-94
2021/09/30 13:42:32;;;;;;;4.00;1.45;;;18.30;51.50;;;;;;5012512;28;20294;-94
2021/09/30 13:44:59;;;;;;;4.28;1.83;;;18.40;51.50;;;;;;4994933;28;20203;-91
2021/09/30 13:47:33;;;;;;;5.60;1.48;;;18.40;51.10;;;;;;4985910;28;20206;-91
2021/09/30 13:49:59;;;;;;;6.05;1.75;;;18.40;50.80;;;;;;5011230;28;20273;-93
2021/09/30 13:52:26;;;;;;;3.70;1.35;;;18.40;50.90;;;;;;5013099;28;20246;-93
2021/09/30 13:54:52;;;;;;;10.27;2.00;;;18.40;50.90;;;;;;5010062;28;20209;-94
2021/09/30 13:57:18;;;;;;;6.03;1.70;;;18.40;51.70;;;;;;5012943;28;20190;-93
2021/09/30 13:59:44;;;;;;;3.83;1.20;;;18.50;52.10;;;;;;5011240;28;20217;-94
2021/09/30 14:02:10;;;;;;;4.57;1.60;;;18.60;52.00;;;;;;5013524;28;20186;-94
2021/09/30 14:04:36;;;;;;;4.77;1.63;;;18.50;52.30;;;;;;5010345;28;20237;-93
2021/09/30 14:07:03;;;;;;;6.97;1.60;;;18.50;51.30;;;;;;5009466;28;20230;-93
2021/09/30 14:09:32;;;;;;;2.55;1.10;;;18.30;50.80;;;;;;5008135;28;20174;-93
2021/09/30 14:11:59;;;;;;;5.72;1.65;;;18.50;50.80;;;;;;5007599;28;20179;-92
2021/09/30 14:14:25;;;;;;;7.97;2.42;;;18.50;50.40;;;;;;5006584;28;20203;-93
2021/09/30 14:16:51;;;;;;;6.97;2.40;;;18.40;51.30;;;;;;5011886;28;20188;-92
2021/09/30 14:19:18;;;;;;;9.07;1.70;;;18.20;51.40;;;;;;5009711;28;20265;-92
2021/09/30 14:21:44;;;;;;;9.18;1.73;;;18.30;51.50;;;;;;5013836;28;20413;-92
2021/09/30 14:24:22;;;;;;;2.03;1.40;;;18.30;50.90;;;;;;5012223;28;20194;-94
2021/09/30 14:26:58;;;;;;;5.57;1.60;;;18.50;50.80;;;;;;5020339;28;20233;-93
2021/09/30 14:29:55;;;;;;;4.53;1.33;;;18.50;50.20;;;;;;4996303;28;20163;-94
2021/09/30 14:32:31;;;;;;;;;;;;;;;;;;;;;
2021/09/30 14:35:20;;;;;;;9.18;1.33;;;18.20;49.00;;;;;;4996560;28;20214;-93
2021/09/30 14:37:46;;;;;;;4.47;1.73;;;18.30;49.70;;;;;;4979086;28;20196;-96
2021/09/30 14:40:12;;;;;;;6.45;1.30;;;18.10;49.10;;;;;;4977178;28;20195;-93
2021/09/30 14:42:39;;;;;;;2.97;1.42;;;18.20;49.10;;;;;;4982268;28;20234;-94
2021/09/30 14:45:05;;;;;;;6.85;1.30;;;18.00;49.50;;;;;;4982526;28;20172;-94
2021/09/30 14:47:31;;;;;;;3.25;1.10;;;18.10;49.90;;;;;;4998597;28;20230;-94
2021/09/30 14:49:57;;;;;;;2.23;1.30;;;18.00;49.80;;;;;;4982500;28;20180;-95
2021/09/30 14:52:24;;;;;;;5.93;1.40;;;17.90;49.40;;;;;;4970324;28;20175;-92
2021/09/30 14:54:50;;;;;;;5.13;1.67;;;17.90;49.20;;;;;;4969090;28;20457;-95
2021/09/30 14:57:16;;;;;;;4.80;1.63;;;18.10;48.90;;;;;;4949514;29;20180;-92
2021/09/30 14:59:42;;;;;;;5.13;1.25;;;17.90;48.20;;;;;;4952283;28;20183;-91
2021/09/30 15:02:08;;;;;;;2.93;1.20;;;17.90;48.10;;;;;;4973413;28;20191;-92
2021/09/30 15:04:37;;;;;;;4.22;1.50;;;18.10;48.50;;;;;;4964521;28;20180;-94
2021/09/30 15:07:05;;;;;;;3.10;1.73;;;18.00;48.40;;;;;;4988832;28;20302;-92
2021/09/30 15:09:32;;;;;;;2.80;1.20;;;18.10;48.10;;;;;;4996058;28;20194;-91
2021/09/30 15:11:59;;;;;;;3.80;1.42;;;18.20;48.10;;;;;;5004525;28;20603;-92
2021/09/30 15:14:26;;;;;;;3.88;1.60;;;18.20;49.00;;;;;;5004092;28;20661;-92
2021/09/30 15:17:23;;;;;;;5.00;1.77;;;18.10;49.50;;;;;;5002971;28;20178;-92
2021/09/30 15:19:53;;;;;;;4.40;1.52;;;18.10;49.70;;;;;;5019101;28;20743;-93
2021/09/30 15:22:19;;;;;;;15.52;2.75;;;18.20;49.40;;;;;;5006157;28;20246;-92
2021/09/30 15:24:45;;;;;;;3.00;1.40;;;18.10;49.40;;;;;;5005519;28;20229;-92
2021/09/30 15:27:12;;;;;;;4.93;1.47;;;18.10;49.60;;;;;;5005665;28;20210;-92
2021/09/30 15:29:39;;;;;;;5.45;1.55;;;18.10;50.20;;;;;;5006817;28;20446;-92
2021/09/30 15:32:07;;;;;;;4.80;1.20;;;18.00;50.30;;;;;;5007149;28;20186;-93
2021/09/30 15:34:37;;;;;;;4.55;1.70;;;17.90;50.70;;;;;;5025658;28;20175;-93
2021/09/30 15:37:03;;;;;;;2.73;1.73;;;17.90;50.40;;;;;;4990629;28;20198;-92
2021/09/30 15:39:29;;;;;;;5.10;1.20;;;17.80;49.70;;;;;;4987465;28;20415;-93
2021/09/30 15:41:55;;;;;;;3.13;1.60;;;17.80;50.70;;;;;;4989615;28;20449;-92
2021/09/30 15:44:21;;;;;;;10.33;1.60;;;17.80;51.00;;;;;;4989062;28;20438;-92
2021/09/30 15:46:47;;;;;;;3.70;1.53;;;18.00;50.80;;;;;;4990554;28;20843;-92
2021/09/30 15:49:14;;;;;;;10.80;5.97;;;18.00;50.30;;;;;;4984096;28;20426;-95
2021/09/30 15:51:39;;;;;;;6.25;1.88;;;18.00;50.40;;;;;;4994935;28;20191;-92
2021/09/30 15:54:06;;;;;;;4.03;1.40;;;17.80;50.60;;;;;;5000445;28;20600;-92
2021/09/30 15:56:31;;;;;;;6.13;1.33;;;17.90;51.10;;;;;;5001480;28;20422;-92
2021/09/30 15:58:57;;;;;;;8.20;1.47;;;18.00;51.20;;;;;;5002976;28;20217;-92
2021/09/30 16:01:28;;;;;;;2.77;1.40;;;17.90;50.40;;;;;;5009465;28;20428;-92
2021/09/30 16:03:54;;;;;;;2.92;1.83;;;18.00;50.50;;;;;;5014298;28;20202;-92
2021/09/30 16:06:19;;;;;;;5.00;2.13;;;17.70;50.40;;;;;;5007888;28;20305;-92